• Join FlightAware (Why Join?)
  • Login
  • US Flag 
11:47AM EDT


 

Airport Tracker/Info


-or-


 

Live Flight TrackerFlight Track Log ✈ UAL4234 ✈ 23-Apr-2013 ✈ KIAH - KRDU

Flight Track Log - Related Links

Times and Time Zones

All times are in EDT time to prevent confusion due to time zone crossing. See the UAL4234 flight status page for this flight to view local times or setup timezone preferences in your user account.

Time Position Orientation Groundspeed Altitude Reporting Facility
EDT Latitude Longitude Course Direction KTS MPH feet Rate Location/Type
04:52PM 29.9617 -95.3436 120° Southeast 158 182 500  Level Houston Center
04:53PM 29.9514 -95.3231 120° Southeast 172 198 1,500 2,100 Climbing Houston Center
04:53PM 29.9492 -95.3039 98° East 177 204 2,100 1,740 Climbing Houston Center
04:54PM 29.9392 -95.2572 104° East 232 267 3,300 1,800 Climbing Houston Center
04:54PM 29.9333 -95.2317 105° East 219 252 4,000 2,520 Climbing Houston Center
04:55PM 29.9192 -95.1475 101° East 265 305 6,800 2,580 Climbing Houston Center
04:56PM 29.9081 -95.0825 101° East 284 327 8,400 2,100 Climbing Houston Center
04:56PM 29.9050 -95.0589 98° East 277 319 9,000 1,500 Climbing Houston Center
04:57PM 29.8903 -94.9631 100° East 297 342 10,600 1,260 Climbing Houston Center
04:58PM 29.8858 -94.8486 93° East 353 406 11,700 1,380 Climbing Houston Center
04:59PM 29.8797 -94.7047 93° East 373 429 13,500 1,680 Climbing Houston Center
05:00PM 29.8739 -94.5800 93° East 386 444 15,200 1,560 Climbing Houston Center
05:01PM 29.8686 -94.4547 93° East 391 450 16,800 1,500 Climbing Houston Center
05:03PM 29.8622 -94.3292 93° East 394 453 18,400 1,500 Climbing Houston Center
05:04PM 29.8578 -94.2006 92° East 401 461 20,000 1,380 Climbing Houston Center
05:05PM 29.8544 -94.0678 92° East 408 470 21,300 1,200 Climbing Houston Center
05:06PM 29.8653 -93.9336 85° East 425 489 22,600 1,380 Climbing Houston Center
05:07PM 29.8822 -93.7708 83° East 431 496 24,200 1,440 Climbing Houston Center
05:08PM 29.8964 -93.6353 83° East 430 495 25,600 1,260 Climbing Houston Center
05:09PM 29.9094 -93.4969 84° East 435 501 26,900 1,260 Climbing Houston Center
05:10PM 29.9236 -93.3583 83° East 440 506 28,300 1,440 Climbing Houston Center
05:11PM 29.9406 -93.1939 83° East 436 502 29,900 1,380 Climbing Houston Center
05:12PM 29.9547 -93.0572 83° East 433 498 31,200 1,200 Climbing Houston Center
05:13PM 29.9689 -92.9194 83° East 436 502 32,500 1,080 Climbing Houston Center
05:14PM 29.9808 -92.7808 84° East 436 502 33,500 900 Climbing Houston Center
05:15PM 29.9925 -92.6403 84° East 441 507 34,400 720 Climbing Houston Center
05:16PM 30.0050 -92.4703 85° East 445 512 35,000 240 Climbing Houston Center
05:17PM 30.0172 -92.3181 85° East 472 543 35,000  Level Houston Center
05:18PM 30.0286 -92.1603 85° East 493 567 35,000  Level Houston Center
05:19PM 30.0422 -91.9942 85° East 516 594 35,000  Level Houston Center
05:20PM 30.0550 -91.8256 85° East 527 606 35,000  Level Houston Center
05:21PM 30.0669 -91.6556 85° East 538 619 35,000  Level Houston Center
05:22PM 30.0828 -91.4514 85° East 535 616 35,000  Level Houston Center
05:23PM 30.0956 -91.2808 85° East 534 615 35,000  Level Houston Center
05:24PM 30.1067 -91.1108 86° East 533 613 35,000  Level Houston Center
05:25PM 30.1192 -90.9414 85° East 531 611 35,000  Level Houston Center
05:26PM 30.1586 -90.7783 74° East 526 605 35,000  Level Houston Center
05:27PM 30.2075 -90.5847 74° East 525 604 35,000  Level Houston Center
05:28PM 30.2464 -90.4214 75° East 525 604 35,000  Level Houston Center
05:29PM 30.2861 -90.2586 74° East 528 608 35,000  Level Houston Center
05:30PM 30.3247 -90.0958 75° East 525 604 35,000 540 Level Houston Center
05:32PM 30.3622 -89.9350 75° East 516 594 36,200 960 Climbing Houston Center
05:33PM 30.4042 -89.7575 75° East 503 579 37,000 360 Climbing Houston Center
05:34PM 30.4397 -89.6103 74° East 506 582 37,000  Level Houston Center
05:35PM 30.4772 -89.4481 75° East 517 595 37,000  Level Houston Center
05:36PM 30.5150 -89.2856 75° East 521 600 37,000  Level Houston Center
05:37PM 30.5586 -89.0892 75° East 523 602 37,000  Level Houston Center
05:38PM 30.5972 -88.9175 75° East 522 601 37,000  Level Houston Center
05:39PM 30.6333 -88.7553 75° East 523 602 37,000  Level Houston Center
05:40PM 30.6722 -88.5944 74° East 521 600 37,000  Level Houston Center
05:41PM 30.7469 -88.4667 56° Northeast 504 580 37,000  Level Houston Center
05:42PM 30.8503 -88.3183 51° Northeast 494 568 37,000  Level Houston Center
05:43PM 30.9367 -88.1950 51° Northeast 494 568 37,000  Level Houston Center
05:44PM 31.0261 -88.0700 50° Northeast 501 577 37,000  Level Houston Center
05:45PM 31.1131 -87.9456 51° Northeast 497 572 37,000  Level Houston Center
05:46PM 31.1994 -87.8217 51° Northeast 494 568 37,000  Level Houston Center
05:47PM 31.3000 -87.6764 51° Northeast 495 570 37,000  Level Houston Center
05:48PM 31.3922 -87.5467 50° Northeast 490 564 37,000  Level Atlanta Center
05:49PM 31.4789 -87.4258 50° Northeast 490 564 37,000  Level Atlanta Center
05:50PM 31.5639 -87.2997 52° Northeast 490 564 37,000  Level Atlanta Center
05:51PM 31.6483 -87.1761 51° Northeast 485 558 37,000  Level Atlanta Center
05:52PM 31.7372 -87.0400 52° Northeast 480 552 37,000  Level Atlanta Center
05:53PM 31.8194 -86.9206 51° Northeast 480 552 37,000  Level Atlanta Center
05:54PM 31.9017 -86.7958 52° Northeast 480 552 37,000  Level Atlanta Center
05:55PM 31.9811 -86.6906 48° Northeast 480 552 37,000  Level Atlanta Center
05:56PM 32.0650 -86.5681 51° Northeast 480 552 37,000  Level Atlanta Center
05:57PM 32.1447 -86.4428 53° Northeast 480 552 37,000  Level Atlanta Center
05:58PM 32.2350 -86.3053 52° Northeast 473 544 37,000  Level Atlanta Center
05:59PM 32.3100 -86.1989 50° Northeast 479 551 37,000  Level Atlanta Center
06:00PM 32.3997 -86.0831 47° Northeast 474 545 37,000  Level Atlanta Center
06:01PM 32.4892 -85.9669 48° Northeast 474 545 37,000  Level Atlanta Center
06:02PM 32.5828 -85.8483 47° Northeast 481 554 37,000  Level Atlanta Center
06:03PM 32.6658 -85.7339 49° Northeast 474 545 37,000  Level Atlanta Center
06:04PM 32.7553 -85.6147 48° Northeast 474 545 37,000  Level Atlanta Center
06:05PM 32.8050 -85.4672 68° East 467 537 37,000  Level Atlanta Center
06:06PM 32.8442 -85.3147 73° East 475 547 37,000  Level Atlanta Center
06:07PM 32.8833 -85.1594 73° East 475 547 37,000  Level Atlanta Center
06:08PM 32.9222 -84.9964 74° East 469 540 37,000  Level Atlanta Center
06:09PM 32.9650 -84.8411 72° East 481 554 37,000  Level Atlanta Center
06:10PM 33.0036 -84.6928 73° East 481 554 37,000  Level Atlanta Center
06:11PM 33.0419 -84.5344 74° East 474 545 37,000  Level Atlanta Center
06:12PM 33.0778 -84.3858 74° East 479 551 37,000  Level Atlanta Center
06:13PM 33.1178 -84.2297 73° East 480 552 37,000  Level Atlanta Center
06:14PM 33.1556 -84.0761 74° East 480 552 37,000  Level Atlanta Center
06:15PM 33.1908 -83.9247 74° East 475 547 37,000  Level Atlanta Center
06:16PM 33.2283 -83.7706 74° East 475 547 37,000  Level Atlanta Center
06:17PM 33.2675 -83.6164 73° East 480 552 37,000  Level Atlanta Center
06:18PM 33.3025 -83.4647 75° East 474 545 37,000 -420 Level Atlanta Center
06:19PM 33.3411 -83.3103 73° East 480 552 36,200 -900 Descending Atlanta Center
06:20PM 33.3758 -83.1583 75° East 473 544 35,300 -900 Descending Atlanta Center
06:21PM 33.4142 -83.0036 73° East 479 551 34,500 -780 Descending Atlanta Center
06:22PM 33.4442 -82.8686 75° East 474 545 33,800 -780 Descending Atlanta Center
06:23PM 33.4822 -82.7089 74° East 488 562 33,000 -420 Descending Atlanta Center
06:24PM 33.5161 -82.5539 75° East 488 562 33,000  Level Atlanta Center
06:25PM 33.5578 -82.3936 73° East 483 556 33,000  Level Atlanta Center
06:26PM 33.5908 -82.2283 76° East 475 547 33,000  Level Atlanta Center
06:28PM 33.6556 -81.9544 74° East 498 573 33,000  Level Jacksonville Center
06:29PM 33.6919 -81.8017 74° East 486 559 33,000  Level Jacksonville Center
06:30PM 33.7281 -81.6464 74° East 476 548 33,000  Level Jacksonville Center
06:31PM 33.7619 -81.4936 75° East 476 548 33,000  Level Jacksonville Center
06:32PM 33.7956 -81.3406 75° East 476 548 33,000  Level Jacksonville Center
06:33PM 33.8331 -81.1700 75° East 476 548 33,000  Level Jacksonville Center
06:34PM 33.8664 -81.0192 75° East 468 539 33,000  Level Jacksonville Center
06:35PM 33.9014 -80.8658 75° East 468 539 33,000  Level Jacksonville Center
06:36PM 33.9364 -80.7072 75° East 473 544 33,000 -60 Level Jacksonville Center
06:37PM 33.9733 -80.5536 74° East 473 544 32,900 -720 Descending Jacksonville Center
06:38PM 34.0589 -80.4436 47° Northeast 437 503 31,600 -1,500 Descending Jacksonville Center
06:39PM 34.1703 -80.3853 23° Northeast 416 479 30,000 -1,320 Descending Jacksonville Center
06:40PM 34.2778 -80.3294 23° Northeast 416 479 29,000 -900 Descending Jacksonville Center
06:41PM 34.3892 -80.2708 23° Northeast 421 484 28,200 -1,200 Descending Jacksonville Center
06:42PM 34.4986 -80.2144 23° Northeast 421 484 26,700 -1,500 Descending Jacksonville Center
06:43PM 34.5975 -80.1611 24° Northeast 408 470 25,300 -1,320 Descending Jacksonville Center
06:44PM 34.7019 -80.1089 22° Northeast 360 414 23,800 -1,080 Descending Washington Center
06:45PM 34.7939 -80.0508 27° Northeast 367 422 23,000 -420 Descending Washington Center
06:46PM 34.8786 -79.9617 41° Northeast 378 435 23,000  Level Washington Center
06:47PM 34.9589 -79.8722 42° Northeast 384 442 23,000  Level Washington Center
06:48PM 35.0372 -79.7850 42° Northeast 379 436 23,000  Level Washington Center
06:49PM 35.1197 -79.6956 42° Northeast 384 442 23,000 -540 Level Washington Center
06:50PM 35.1978 -79.6081 42° Northeast 384 442 22,000 -1,620 Descending Washington Center
06:51PM 35.2792 -79.5433 33° Northeast 368 423 19,800 -2,580 Descending Washington Center
06:52PM 35.3069 -79.5269 26° Northeast 342 394 18,800 -2,880 Descending Washington Center
06:52PM 35.3558 -79.4961 27° Northeast 344 396 17,600 -2,340 Descending Washington Center
06:53PM 35.4306 -79.4436 30° Northeast 347 399 15,500 -1,980 Descending Washington Center
06:53PM 35.4478 -79.4267 39° Northeast 341 392 15,200 -1,140 Descending Washington Center
06:54PM 35.5033 -79.3833 32° Northeast 306 352 14,400 -1,500 Descending Washington Center
06:54PM 35.5231 -79.3589 45° Northeast 310 357 13,700 -2,100 Descending Washington Center
06:55PM 35.5539 -79.3042 55° Northeast 302 348 12,300 -1,920 Descending Washington Center
06:55PM 35.5650 -79.2817 59° Northeast 302 348 11,800 -1,920 Descending Washington Center
06:56PM 35.6025 -79.2169 55° Northeast 306 352 10,400 -1,800 Descending Washington Center
06:56PM 35.6136 -79.1972 55° Northeast 302 348 10,000 -1,800 Descending Washington Center
06:57PM 35.6556 -79.1197 56° Northeast 294 338 8,400 -2,040 Descending Washington Center
06:58PM 35.7019 -79.0322 57° Northeast 277 319 6,200 -1,620 Descending Washington Center
06:59PM 35.7478 -78.9550 54° Northeast 282 325 4,900 -1,320 Descending Washington Center
07:00PM 35.7931 -78.9056 42° Northeast 218 251 3,600 -1,380 Descending Washington Center